sensor_id;sensor_type;location;lat;lon;timestamp;P1;durP1;ratioP1;P2;durP2;ratioP2
4837;SDS011;2433;48.768;9.154;2023-05-15T00:01:42;2.80;;;2.23;;
4837;SDS011;2433;48.768;9.154;2023-05-15T00:04:08;6.13;;;2.40;;
4837;SDS011;2433;48.768;9.154;2023-05-15T00:06:33;2.40;;;1.73;;
4837;SDS011;2433;48.768;9.154;2023-05-15T00:08:59;2.10;;;1.90;;
4837;SDS011;2433;48.768;9.154;2023-05-15T00:11:25;2.70;;;2.10;;
4837;SDS011;2433;48.768;9.154;2023-05-15T00:13:52;3.00;;;1.93;;
4837;SDS011;2433;48.768;9.154;2023-05-15T00:16:18;2.27;;;2.00;;
4837;SDS011;2433;48.768;9.154;2023-05-15T00:18:43;2.17;;;1.90;;
4837;SDS011;2433;48.768;9.154;2023-05-15T00:21:09;4.97;;;2.30;;
4837;SDS011;2433;48.768;9.154;2023-05-15T00:23:35;2.50;;;2.00;;
4837;SDS011;2433;48.768;9.154;2023-05-15T00:26:00;1.67;;;1.57;;
4837;SDS011;2433;48.768;9.154;2023-05-15T00:28:26;2.80;;;1.90;;
4837;SDS011;2433;48.768;9.154;2023-05-15T00:30:51;2.67;;;2.00;;
4837;SDS011;2433;48.768;9.154;2023-05-15T00:33:17;3.30;;;2.23;;
4837;SDS011;2433;48.768;9.154;2023-05-15T00:35:43;2.90;;;2.30;;
4837;SDS011;2433;48.768;9.154;2023-05-15T00:38:08;3.70;;;2.23;;
4837;SDS011;2433;48.768;9.154;2023-05-15T00:40:35;3.30;;;2.20;;
4837;SDS011;2433;48.768;9.154;2023-05-15T00:43:01;2.20;;;1.90;;
4837;SDS011;2433;48.768;9.154;2023-05-15T00:45:28;2.10;;;1.90;;
4837;SDS011;2433;48.768;9.154;2023-05-15T00:47:54;2.20;;;2.00;;
4837;SDS011;2433;48.768;9.154;2023-05-15T00:50:22;3.67;;;2.30;;
4837;SDS011;2433;48.768;9.154;2023-05-15T00:52:48;2.03;;;1.87;;
4837;SDS011;2433;48.768;9.154;2023-05-15T00:55:13;3.80;;;2.00;;
4837;SDS011;2433;48.768;9.154;2023-05-15T00:57:40;4.27;;;3.13;;
4837;SDS011;2433;48.768;9.154;2023-05-15T01:00:06;3.40;;;2.00;;
4837;SDS011;2433;48.768;9.154;2023-05-15T01:02:36;4.30;;;2.60;;
4837;SDS011;2433;48.768;9.154;2023-05-15T01:05:02;3.27;;;2.60;;
4837;SDS011;2433;48.768;9.154;2023-05-15T01:07:29;2.57;;;2.37;;
4837;SDS011;2433;48.768;9.154;2023-05-15T01:09:57;2.30;;;2.10;;
4837;SDS011;2433;48.768;9.154;2023-05-15T01:12:24;3.10;;;2.53;;
4837;SDS011;2433;48.768;9.154;2023-05-15T01:14:51;2.33;;;2.13;;
4837;SDS011;2433;48.768;9.154;2023-05-15T01:17:17;2.60;;;2.40;;
4837;SDS011;2433;48.768;9.154;2023-05-15T01:19:42;3.60;;;2.30;;
4837;SDS011;2433;48.768;9.154;2023-05-15T01:27:42;2.47;;;2.10;;
4837;SDS011;2433;48.768;9.154;2023-05-15T01:32:51;2.90;;;2.60;;
4837;SDS011;2433;48.768;9.154;2023-05-15T01:37:53;3.63;;;2.37;;
4837;SDS011;2433;48.768;9.154;2023-05-15T01:40:25;2.77;;;2.53;;
4837;SDS011;2433;48.768;9.154;2023-05-15T01:42:53;3.63;;;1.70;;
4837;SDS011;2433;48.768;9.154;2023-05-15T01:45:20;2.73;;;2.33;;
4837;SDS011;2433;48.768;9.154;2023-05-15T01:47:48;3.57;;;2.40;;
4837;SDS011;2433;48.768;9.154;2023-05-15T01:50:15;2.43;;;2.00;;
4837;SDS011;2433;48.768;9.154;2023-05-15T01:52:43;3.43;;;1.63;;
4837;SDS011;2433;48.768;9.154;2023-05-15T01:55:12;3.53;;;2.30;;
4837;SDS011;2433;48.768;9.154;2023-05-15T01:57:40;2.73;;;2.37;;
4837;SDS011;2433;48.768;9.154;2023-05-15T02:00:07;2.53;;;2.07;;
4837;SDS011;2433;48.768;9.154;2023-05-15T02:02:39;2.43;;;2.23;;
4837;SDS011;2433;48.768;9.154;2023-05-15T02:05:06;2.40;;;2.10;;
4837;SDS011;2433;48.768;9.154;2023-05-15T02:07:32;2.23;;;2.00;;
4837;SDS011;2433;48.768;9.154;2023-05-15T02:09:58;2.70;;;2.50;;
4837;SDS011;2433;48.768;9.154;2023-05-15T02:12:25;4.40;;;3.23;;
4837;SDS011;2433;48.768;9.154;2023-05-15T02:14:51;3.93;;;2.57;;
4837;SDS011;2433;48.768;9.154;2023-05-15T02:17:18;3.50;;;2.87;;
4837;SDS011;2433;48.768;9.154;2023-05-15T02:19:44;4.30;;;2.43;;
4837;SDS011;2433;48.768;9.154;2023-05-15T02:22:10;2.70;;;2.13;;
4837;SDS011;2433;48.768;9.154;2023-05-15T02:24:36;3.30;;;2.63;;
4837;SDS011;2433;48.768;9.154;2023-05-15T02:27:12;2.83;;;2.60;;
4837;SDS011;2433;48.768;9.154;2023-05-15T02:35:13;2.03;;;1.80;;
4837;SDS011;2433;48.768;9.154;2023-05-15T02:37:52;4.30;;;2.43;;
4837;SDS011;2433;48.768;9.154;2023-05-15T02:40:19;2.77;;;1.90;;
4837;SDS011;2433;48.768;9.154;2023-05-15T02:42:48;2.40;;;1.97;;
4837;SDS011;2433;48.768;9.154;2023-05-15T02:45:15;3.07;;;2.57;;
4837;SDS011;2433;48.768;9.154;2023-05-15T02:47:41;2.93;;;2.73;;
4837;SDS011;2433;48.768;9.154;2023-05-15T02:50:07;4.00;;;2.57;;
4837;SDS011;2433;48.768;9.154;2023-05-15T02:52:33;2.60;;;1.97;;
4837;SDS011;2433;48.768;9.154;2023-05-15T02:55:02;2.57;;;1.93;;
4837;SDS011;2433;48.768;9.154;2023-05-15T02:57:28;4.27;;;2.40;;
4837;SDS011;2433;48.768;9.154;2023-05-15T02:59:54;2.30;;;2.10;;
4837;SDS011;2433;48.768;9.154;2023-05-15T03:02:21;3.37;;;2.60;;
4837;SDS011;2433;48.768;9.154;2023-05-15T03:04:47;2.50;;;2.30;;
4837;SDS011;2433;48.768;9.154;2023-05-15T03:07:12;3.73;;;2.80;;
4837;SDS011;2433;48.768;9.154;2023-05-15T03:09:41;3.70;;;3.30;;
4837;SDS011;2433;48.768;9.154;2023-05-15T03:12:08;2.90;;;2.33;;
4837;SDS011;2433;48.768;9.154;2023-05-15T03:14:34;3.00;;;2.60;;
4837;SDS011;2433;48.768;9.154;2023-05-15T03:17:01;2.33;;;2.13;;
4837;SDS011;2433;48.768;9.154;2023-05-15T03:19:27;3.53;;;3.20;;
4837;SDS011;2433;48.768;9.154;2023-05-15T03:21:53;2.77;;;2.27;;
4837;SDS011;2433;48.768;9.154;2023-05-15T03:24:18;2.67;;;2.00;;
4837;SDS011;2433;48.768;9.154;2023-05-15T03:26:44;2.77;;;2.13;;
4837;SDS011;2433;48.768;9.154;2023-05-15T03:29:10;3.93;;;2.30;;
4837;SDS011;2433;48.768;9.154;2023-05-15T03:31:35;2.90;;;2.30;;
4837;SDS011;2433;48.768;9.154;2023-05-15T03:34:01;4.07;;;2.53;;
4837;SDS011;2433;48.768;9.154;2023-05-15T03:36:27;3.13;;;1.93;;
4837;SDS011;2433;48.768;9.154;2023-05-15T03:38:53;2.60;;;2.00;;
4837;SDS011;2433;48.768;9.154;2023-05-15T03:41:18;3.10;;;2.50;;
4837;SDS011;2433;48.768;9.154;2023-05-15T03:43:44;2.17;;;1.97;;
4837;SDS011;2433;48.768;9.154;2023-05-15T03:46:10;3.07;;;2.50;;
4837;SDS011;2433;48.768;9.154;2023-05-15T03:48:38;3.40;;;2.63;;
4837;SDS011;2433;48.768;9.154;2023-05-15T03:51:04;3.87;;;2.73;;
4837;SDS011;2433;48.768;9.154;2023-05-15T03:53:30;3.07;;;2.27;;
4837;SDS011;2433;48.768;9.154;2023-05-15T03:55:55;3.77;;;3.03;;
4837;SDS011;2433;48.768;9.154;2023-05-15T03:58:21;3.27;;;2.43;;
4837;SDS011;2433;48.768;9.154;2023-05-15T04:00:48;3.17;;;2.90;;
4837;SDS011;2433;48.768;9.154;2023-05-15T04:03:13;3.37;;;2.47;;
4837;SDS011;2433;48.768;9.154;2023-05-15T04:05:39;2.70;;;2.50;;
4837;SDS011;2433;48.768;9.154;2023-05-15T04:08:04;4.27;;;3.27;;
4837;SDS011;2433;48.768;9.154;2023-05-15T04:10:31;4.10;;;3.10;;
4837;SDS011;2433;48.768;9.154;2023-05-15T04:12:57;3.23;;;2.93;;
4837;SDS011;2433;48.768;9.154;2023-05-15T04:15:23;2.97;;;2.77;;
4837;SDS011;2433;48.768;9.154;2023-05-15T04:17:52;3.50;;;2.87;;
4837;SDS011;2433;48.768;9.154;2023-05-15T04:20:19;4.40;;;3.23;;
4837;SDS011;2433;48.768;9.154;2023-05-15T04:22:45;3.77;;;2.80;;
4837;SDS011;2433;48.768;9.154;2023-05-15T04:25:12;3.57;;;3.10;;
4837;SDS011;2433;48.768;9.154;2023-05-15T04:27:39;4.40;;;3.57;;
4837;SDS011;2433;48.768;9.154;2023-05-15T04:30:05;3.80;;;2.93;;
4837;SDS011;2433;48.768;9.154;2023-05-15T04:32:32;3.47;;;2.80;;
4837;SDS011;2433;48.768;9.154;2023-05-15T04:35:02;3.30;;;3.00;;
4837;SDS011;2433;48.768;9.154;2023-05-15T04:37:31;3.60;;;2.93;;
4837;SDS011;2433;48.768;9.154;2023-05-15T04:39:57;4.33;;;3.37;;
4837;SDS011;2433;48.768;9.154;2023-05-15T04:42:22;3.00;;;2.70;;
4837;SDS011;2433;48.768;9.154;2023-05-15T04:44:48;2.90;;;2.60;;
4837;SDS011;2433;48.768;9.154;2023-05-15T04:47:14;4.33;;;3.37;;
4837;SDS011;2433;48.768;9.154;2023-05-15T04:49:40;3.43;;;3.07;;
4837;SDS011;2433;48.768;9.154;2023-05-15T04:52:06;3.27;;;2.97;;
4837;SDS011;2433;48.768;9.154;2023-05-15T04:54:31;4.17;;;3.50;;
4837;SDS011;2433;48.768;9.154;2023-05-15T04:56:57;5.93;;;3.27;;
4837;SDS011;2433;48.768;9.154;2023-05-15T04:59:23;3.93;;;3.37;;
4837;SDS011;2433;48.768;9.154;2023-05-15T05:01:51;3.53;;;3.07;;
4837;SDS011;2433;48.768;9.154;2023-05-15T05:04:17;3.20;;;2.90;;
4837;SDS011;2433;48.768;9.154;2023-05-15T05:06:44;3.90;;;3.40;;
4837;SDS011;2433;48.768;9.154;2023-05-15T05:09:10;4.63;;;3.80;;
4837;SDS011;2433;48.768;9.154;2023-05-15T05:11:37;3.90;;;2.80;;
4837;SDS011;2433;48.768;9.154;2023-05-15T05:14:03;5.47;;;3.80;;
4837;SDS011;2433;48.768;9.154;2023-05-15T05:16:28;6.47;;;3.37;;
4837;SDS011;2433;48.768;9.154;2023-05-15T05:18:54;5.03;;;4.00;;
4837;SDS011;2433;48.768;9.154;2023-05-15T05:21:20;3.90;;;3.50;;
4837;SDS011;2433;48.768;9.154;2023-05-15T05:23:45;4.10;;;3.60;;
4837;SDS011;2433;48.768;9.154;2023-05-15T05:26:11;5.43;;;4.17;;
4837;SDS011;2433;48.768;9.154;2023-05-15T05:28:37;4.30;;;3.90;;
4837;SDS011;2433;48.768;9.154;2023-05-15T05:31:02;4.60;;;3.97;;
4837;SDS011;2433;48.768;9.154;2023-05-15T05:33:28;4.30;;;3.50;;
4837;SDS011;2433;48.768;9.154;2023-05-15T05:35:53;5.87;;;3.50;;
4837;SDS011;2433;48.768;9.154;2023-05-15T05:38:20;3.70;;;3.30;;
4837;SDS011;2433;48.768;9.154;2023-05-15T05:40:45;4.10;;;3.40;;
4837;SDS011;2433;48.768;9.154;2023-05-15T05:43:11;4.83;;;4.27;;
4837;SDS011;2433;48.768;9.154;2023-05-15T05:45:36;6.27;;;3.90;;
4837;SDS011;2433;48.768;9.154;2023-05-15T05:48:02;6.30;;;4.23;;
4837;SDS011;2433;48.768;9.154;2023-05-15T05:50:27;4.33;;;3.63;;
4837;SDS011;2433;48.768;9.154;2023-05-15T05:52:53;4.33;;;3.93;;
4837;SDS011;2433;48.768;9.154;2023-05-15T05:55:18;4.97;;;3.80;;
4837;SDS011;2433;48.768;9.154;2023-05-15T05:57:44;5.20;;;4.43;;
4837;SDS011;2433;48.768;9.154;2023-05-15T06:00:10;6.90;;;5.63;;
4837;SDS011;2433;48.768;9.154;2023-05-15T06:02:37;5.80;;;4.87;;
4837;SDS011;2433;48.768;9.154;2023-05-15T06:05:03;6.20;;;4.20;;
4837;SDS011;2433;48.768;9.154;2023-05-15T06:07:30;5.97;;;4.80;;
4837;SDS011;2433;48.768;9.154;2023-05-15T06:09:55;5.20;;;4.00;;
4837;SDS011;2433;48.768;9.154;2023-05-15T06:12:21;4.93;;;4.17;;
4837;SDS011;2433;48.768;9.154;2023-05-15T06:14:47;4.70;;;3.97;;
4837;SDS011;2433;48.768;9.154;2023-05-15T06:17:13;5.30;;;4.80;;
4837;SDS011;2433;48.768;9.154;2023-05-15T06:19:38;4.83;;;3.93;;
4837;SDS011;2433;48.768;9.154;2023-05-15T06:22:04;5.83;;;3.70;;
4837;SDS011;2433;48.768;9.154;2023-05-15T06:24:30;5.20;;;4.20;;
4837;SDS011;2433;48.768;9.154;2023-05-15T06:26:55;5.60;;;4.30;;
4837;SDS011;2433;48.768;9.154;2023-05-15T06:29:21;5.07;;;4.40;;
4837;SDS011;2433;48.768;9.154;2023-05-15T06:31:46;5.30;;;4.10;;
4837;SDS011;2433;48.768;9.154;2023-05-15T06:34:12;5.93;;;4.40;;
4837;SDS011;2433;48.768;9.154;2023-05-15T06:36:37;5.70;;;4.30;;
4837;SDS011;2433;48.768;9.154;2023-05-15T06:39:03;7.10;;;5.10;;
4837;SDS011;2433;48.768;9.154;2023-05-15T06:41:29;4.77;;;4.30;;
4837;SDS011;2433;48.768;9.154;2023-05-15T06:43:56;5.27;;;4.67;;
4837;SDS011;2433;48.768;9.154;2023-05-15T06:46:21;4.47;;;3.90;;
4837;SDS011;2433;48.768;9.154;2023-05-15T06:48:47;5.93;;;3.90;;
4837;SDS011;2433;48.768;9.154;2023-05-15T06:51:12;4.43;;;3.30;;
4837;SDS011;2433;48.768;9.154;2023-05-15T06:53:39;4.00;;;3.17;;
4837;SDS011;2433;48.768;9.154;2023-05-15T06:56:06;3.60;;;2.03;;
4837;SDS011;2433;48.768;9.154;2023-05-15T06:58:31;2.47;;;2.27;;
4837;SDS011;2433;48.768;9.154;2023-05-15T07:00:57;3.87;;;3.03;;
4837;SDS011;2433;48.768;9.154;2023-05-15T07:03:22;4.50;;;3.63;;
4837;SDS011;2433;48.768;9.154;2023-05-15T07:05:48;4.67;;;3.83;;
4837;SDS011;2433;48.768;9.154;2023-05-15T07:08:14;4.80;;;3.77;;
4837;SDS011;2433;48.768;9.154;2023-05-15T07:10:39;3.33;;;2.77;;
4837;SDS011;2433;48.768;9.154;2023-05-15T07:13:05;3.37;;;2.83;;
4837;SDS011;2433;48.768;9.154;2023-05-15T07:15:31;3.70;;;3.03;;
4837;SDS011;2433;48.768;9.154;2023-05-15T07:17:56;4.70;;;3.30;;
4837;SDS011;2433;48.768;9.154;2023-05-15T07:20:22;4.47;;;3.03;;
4837;SDS011;2433;48.768;9.154;2023-05-15T07:22:47;3.33;;;2.23;;
4837;SDS011;2433;48.768;9.154;2023-05-15T07:25:13;7.03;;;3.13;;
4837;SDS011;2433;48.768;9.154;2023-05-15T07:27:38;2.63;;;2.43;;
4837;SDS011;2433;48.768;9.154;2023-05-15T07:30:04;3.80;;;2.70;;
4837;SDS011;2433;48.768;9.154;2023-05-15T07:32:30;3.60;;;3.30;;
4837;SDS011;2433;48.768;9.154;2023-05-15T07:34:56;5.53;;;3.40;;
4837;SDS011;2433;48.768;9.154;2023-05-15T07:37:21;3.27;;;2.70;;
4837;SDS011;2433;48.768;9.154;2023-05-15T07:39:48;3.97;;;2.67;;
4837;SDS011;2433;48.768;9.154;2023-05-15T07:42:13;3.57;;;3.00;;
4837;SDS011;2433;48.768;9.154;2023-05-15T07:44:39;3.27;;;2.97;;
4837;SDS011;2433;48.768;9.154;2023-05-15T07:47:05;3.30;;;2.97;;
4837;SDS011;2433;48.768;9.154;2023-05-15T07:49:30;3.20;;;2.40;;
4837;SDS011;2433;48.768;9.154;2023-05-15T07:51:56;3.57;;;2.70;;
4837;SDS011;2433;48.768;9.154;2023-05-15T07:54:21;3.20;;;2.70;;
4837;SDS011;2433;48.768;9.154;2023-05-15T07:56:47;2.97;;;2.10;;
4837;SDS011;2433;48.768;9.154;2023-05-15T07:59:12;2.47;;;2.00;;
4837;SDS011;2433;48.768;9.154;2023-05-15T08:01:38;2.50;;;2.30;;
4837;SDS011;2433;48.768;9.154;2023-05-15T08:04:05;3.30;;;2.60;;
4837;SDS011;2433;48.768;9.154;2023-05-15T08:06:33;2.43;;;1.40;;
4837;SDS011;2433;48.768;9.154;2023-05-15T08:09:01;3.57;;;2.53;;
4837;SDS011;2433;48.768;9.154;2023-05-15T08:11:26;2.67;;;2.10;;
4837;SDS011;2433;48.768;9.154;2023-05-15T08:13:52;3.80;;;2.40;;
4837;SDS011;2433;48.768;9.154;2023-05-15T08:16:18;2.60;;;2.27;;
4837;SDS011;2433;48.768;9.154;2023-05-15T08:18:44;2.83;;;2.43;;
4837;SDS011;2433;48.768;9.154;2023-05-15T08:21:09;2.67;;;2.20;;
4837;SDS011;2433;48.768;9.154;2023-05-15T08:23:35;2.97;;;2.63;;
4837;SDS011;2433;48.768;9.154;2023-05-15T08:26:01;2.73;;;2.07;;
4837;SDS011;2433;48.768;9.154;2023-05-15T08:28:26;2.70;;;2.47;;
4837;SDS011;2433;48.768;9.154;2023-05-15T08:30:52;2.50;;;2.30;;
4837;SDS011;2433;48.768;9.154;2023-05-15T08:33:17;2.83;;;2.20;;
4837;SDS011;2433;48.768;9.154;2023-05-15T08:35:43;3.23;;;1.30;;
4837;SDS011;2433;48.768;9.154;2023-05-15T08:38:08;5.10;;;2.60;;
4837;SDS011;2433;48.768;9.154;2023-05-15T08:40:34;2.90;;;2.70;;
4837;SDS011;2433;48.768;9.154;2023-05-15T08:43:02;2.73;;;1.80;;
4837;SDS011;2433;48.768;9.154;2023-05-15T08:45:28;1.90;;;1.40;;
4837;SDS011;2433;48.768;9.154;2023-05-15T08:47:54;4.40;;;3.07;;
4837;SDS011;2433;48.768;9.154;2023-05-15T08:50:22;2.30;;;2.10;;
4837;SDS011;2433;48.768;9.154;2023-05-15T08:52:48;2.90;;;2.37;;
4837;SDS011;2433;48.768;9.154;2023-05-15T08:55:15;2.70;;;2.47;;
4837;SDS011;2433;48.768;9.154;2023-05-15T08:57:41;3.23;;;1.77;;
4837;SDS011;2433;48.768;9.154;2023-05-15T09:00:08;3.60;;;2.90;;
4837;SDS011;2433;48.768;9.154;2023-05-15T09:02:39;4.73;;;2.83;;
4837;SDS011;2433;48.768;9.154;2023-05-15T09:05:06;2.77;;;2.47;;
4837;SDS011;2433;48.768;9.154;2023-05-15T09:07:32;3.03;;;1.33;;
4837;SDS011;2433;48.768;9.154;2023-05-15T09:09:58;3.87;;;3.10;;
4837;SDS011;2433;48.768;9.154;2023-05-15T09:12:26;3.03;;;2.27;;
4837;SDS011;2433;48.768;9.154;2023-05-15T09:15:07;2.90;;;2.63;;
4837;SDS011;2433;48.768;9.154;2023-05-15T09:17:41;3.73;;;2.80;;
4837;SDS011;2433;48.768;9.154;2023-05-15T09:22:54;3.50;;;3.10;;
4837;SDS011;2433;48.768;9.154;2023-05-15T09:25:36;2.13;;;1.93;;
4837;SDS011;2433;48.768;9.154;2023-05-15T09:28:07;3.17;;;2.87;;
4837;SDS011;2433;48.768;9.154;2023-05-15T09:30:38;4.40;;;3.23;;
4837;SDS011;2433;48.768;9.154;2023-05-15T09:33:06;6.40;;;3.10;;
4837;SDS011;2433;48.768;9.154;2023-05-15T09:35:36;5.00;;;3.53;;
4837;SDS011;2433;48.768;9.154;2023-05-15T09:38:07;4.70;;;2.80;;
4837;SDS011;2433;48.768;9.154;2023-05-15T09:40:34;2.50;;;1.80;;
4837;SDS011;2433;48.768;9.154;2023-05-15T09:43:00;3.30;;;2.67;;
4837;SDS011;2433;48.768;9.154;2023-05-15T09:45:26;2.70;;;2.13;;
4837;SDS011;2433;48.768;9.154;2023-05-15T09:47:54;3.50;;;2.63;;
4837;SDS011;2433;48.768;9.154;2023-05-15T09:50:22;3.93;;;2.30;;
4837;SDS011;2433;48.768;9.154;2023-05-15T09:52:48;5.10;;;3.13;;
4837;SDS011;2433;48.768;9.154;2023-05-15T09:55:15;4.40;;;3.23;;
4837;SDS011;2433;48.768;9.154;2023-05-15T09:57:54;1.53;;;1.20;;
4837;SDS011;2433;48.768;9.154;2023-05-15T10:00:36;2.90;;;2.40;;
4837;SDS011;2433;48.768;9.154;2023-05-15T10:03:03;3.00;;;2.67;;
4837;SDS011;2433;48.768;9.154;2023-05-15T10:05:30;3.33;;;3.00;;
4837;SDS011;2433;48.768;9.154;2023-05-15T10:07:56;3.07;;;2.40;;
4837;SDS011;2433;48.768;9.154;2023-05-15T10:10:23;3.43;;;2.87;;
4837;SDS011;2433;48.768;9.154;2023-05-15T10:12:50;2.83;;;2.63;;
4837;SDS011;2433;48.768;9.154;2023-05-15T10:15:17;2.00;;;1.90;;
4837;SDS011;2433;48.768;9.154;2023-05-15T10:17:43;3.03;;;2.73;;
4837;SDS011;2433;48.768;9.154;2023-05-15T10:20:12;4.30;;;2.93;;
4837;SDS011;2433;48.768;9.154;2023-05-15T10:22:39;3.00;;;2.40;;
4837;SDS011;2433;48.768;9.154;2023-05-15T10:25:07;2.00;;;1.90;;
4837;SDS011;2433;48.768;9.154;2023-05-15T10:27:35;2.40;;;2.20;;
4837;SDS011;2433;48.768;9.154;2023-05-15T10:30:03;2.20;;;2.00;;
4837;SDS011;2433;48.768;9.154;2023-05-15T10:32:30;2.40;;;2.20;;
4837;SDS011;2433;48.768;9.154;2023-05-15T10:34:57;3.80;;;3.07;;
4837;SDS011;2433;48.768;9.154;2023-05-15T10:37:22;3.90;;;2.40;;
4837;SDS011;2433;48.768;9.154;2023-05-15T10:39:48;3.03;;;2.43;;
4837;SDS011;2433;48.768;9.154;2023-05-15T10:42:15;3.20;;;2.90;;
4837;SDS011;2433;48.768;9.154;2023-05-15T10:44:41;3.03;;;2.60;;
4837;SDS011;2433;48.768;9.154;2023-05-15T10:47:06;2.40;;;2.20;;
4837;SDS011;2433;48.768;9.154;2023-05-15T10:49:32;2.57;;;1.80;;
4837;SDS011;2433;48.768;9.154;2023-05-15T10:51:58;1.90;;;1.40;;
4837;SDS011;2433;48.768;9.154;2023-05-15T10:54:24;2.90;;;2.30;;
4837;SDS011;2433;48.768;9.154;2023-05-15T10:56:50;2.40;;;2.07;;
4837;SDS011;2433;48.768;9.154;2023-05-15T10:59:15;2.73;;;2.13;;
4837;SDS011;2433;48.768;9.154;2023-05-15T11:01:41;2.80;;;2.53;;
4837;SDS011;2433;48.768;9.154;2023-05-15T11:04:11;2.13;;;1.93;;
4837;SDS011;2433;48.768;9.154;2023-05-15T11:06:38;1.50;;;1.40;;
4837;SDS011;2433;48.768;9.154;2023-05-15T11:11:52;2.37;;;2.17;;
4837;SDS011;2433;48.768;9.154;2023-05-15T11:14:24;2.93;;;2.70;;
4837;SDS011;2433;48.768;9.154;2023-05-15T11:24:54;1.77;;;1.67;;
4837;SDS011;2433;48.768;9.154;2023-05-15T11:27:42;2.70;;;2.43;;
4837;SDS011;2433;48.768;9.154;2023-05-15T11:35:08;1.20;;;0.97;;
4837;SDS011;2433;48.768;9.154;2023-05-15T11:37:48;3.00;;;1.93;;
4837;SDS011;2433;48.768;9.154;2023-05-15T11:40:17;2.20;;;2.10;;
4837;SDS011;2433;48.768;9.154;2023-05-15T11:45:35;1.73;;;0.90;;
4837;SDS011;2433;48.768;9.154;2023-05-15T11:48:03;1.80;;;1.70;;
4837;SDS011;2433;48.768;9.154;2023-05-15T11:50:31;2.10;;;1.90;;
4837;SDS011;2433;48.768;9.154;2023-05-15T11:53:00;4.73;;;1.73;;
4837;SDS011;2433;48.768;9.154;2023-05-15T11:55:26;2.77;;;1.90;;
4837;SDS011;2433;48.768;9.154;2023-05-15T11:57:53;2.40;;;2.20;;
4837;SDS011;2433;48.768;9.154;2023-05-15T12:00:19;1.90;;;1.80;;
4837;SDS011;2433;48.768;9.154;2023-05-15T12:02:45;1.10;;;1.00;;
4837;SDS011;2433;48.768;9.154;2023-05-15T12:05:11;2.93;;;2.73;;
4837;SDS011;2433;48.768;9.154;2023-05-15T12:07:37;2.60;;;2.40;;
4837;SDS011;2433;48.768;9.154;2023-05-15T12:10:05;2.37;;;2.10;;
4837;SDS011;2433;48.768;9.154;2023-05-15T12:12:31;2.40;;;1.93;;
4837;SDS011;2433;48.768;9.154;2023-05-15T12:15:00;1.60;;;1.50;;
4837;SDS011;2433;48.768;9.154;2023-05-15T12:17:26;2.10;;;2.00;;
4837;SDS011;2433;48.768;9.154;2023-05-15T12:19:51;2.77;;;2.57;;
4837;SDS011;2433;48.768;9.154;2023-05-15T12:22:17;3.10;;;2.00;;
4837;SDS011;2433;48.768;9.154;2023-05-15T12:24:43;2.00;;;1.90;;
4837;SDS011;2433;48.768;9.154;2023-05-15T12:27:09;2.90;;;2.50;;
4837;SDS011;2433;48.768;9.154;2023-05-15T12:29:36;3.30;;;2.67;;
4837;SDS011;2433;48.768;9.154;2023-05-15T12:32:02;2.43;;;1.90;;
4837;SDS011;2433;48.768;9.154;2023-05-15T12:34:28;1.30;;;1.20;;
4837;SDS011;2433;48.768;9.154;2023-05-15T12:36:53;1.97;;;1.87;;
4837;SDS011;2433;48.768;9.154;2023-05-15T12:39:19;2.40;;;1.57;;
4837;SDS011;2433;48.768;9.154;2023-05-15T12:41:45;2.80;;;2.60;;
4837;SDS011;2433;48.768;9.154;2023-05-15T12:44:17;1.70;;;1.60;;
4837;SDS011;2433;48.768;9.154;2023-05-15T12:46:42;2.07;;;1.30;;
4837;SDS011;2433;48.768;9.154;2023-05-15T12:49:08;4.80;;;2.60;;
4837;SDS011;2433;48.768;9.154;2023-05-15T12:51:34;2.73;;;2.20;;
4837;SDS011;2433;48.768;9.154;2023-05-15T12:54:14;1.90;;;1.80;;
4837;SDS011;2433;48.768;9.154;2023-05-15T12:56:41;2.60;;;2.40;;
4837;SDS011;2433;48.768;9.154;2023-05-15T12:59:06;2.33;;;2.10;;
4837;SDS011;2433;48.768;9.154;2023-05-15T13:01:32;2.50;;;2.30;;
4837;SDS011;2433;48.768;9.154;2023-05-15T13:03:59;1.90;;;1.33;;
4837;SDS011;2433;48.768;9.154;2023-05-15T13:06:25;2.20;;;2.10;;
4837;SDS011;2433;48.768;9.154;2023-05-15T13:08:53;3.17;;;2.20;;
4837;SDS011;2433;48.768;9.154;2023-05-15T13:11:19;2.60;;;2.40;;
4837;SDS011;2433;48.768;9.154;2023-05-15T13:13:46;3.50;;;2.60;;
4837;SDS011;2433;48.768;9.154;2023-05-15T13:16:19;2.27;;;1.60;;
4837;SDS011;2433;48.768;9.154;2023-05-15T13:18:57;2.00;;;1.60;;
4837;SDS011;2433;48.768;9.154;2023-05-15T13:21:23;3.10;;;2.10;;
4837;SDS011;2433;48.768;9.154;2023-05-15T13:23:49;3.13;;;2.87;;
4837;SDS011;2433;48.768;9.154;2023-05-15T13:26:15;2.37;;;2.00;;
4837;SDS011;2433;48.768;9.154;2023-05-15T13:28:41;1.70;;;1.60;;
4837;SDS011;2433;48.768;9.154;2023-05-15T13:31:07;2.63;;;2.37;;
4837;SDS011;2433;48.768;9.154;2023-05-15T13:33:32;3.50;;;3.20;;
4837;SDS011;2433;48.768;9.154;2023-05-15T13:36:00;2.60;;;2.40;;
4837;SDS011;2433;48.768;9.154;2023-05-15T13:38:26;2.50;;;2.30;;
4837;SDS011;2433;48.768;9.154;2023-05-15T13:40:51;2.60;;;2.40;;
4837;SDS011;2433;48.768;9.154;2023-05-15T13:43:17;1.80;;;1.70;;
4837;SDS011;2433;48.768;9.154;2023-05-15T13:45:42;2.90;;;2.60;;
4837;SDS011;2433;48.768;9.154;2023-05-15T13:48:08;2.93;;;2.70;;
4837;SDS011;2433;48.768;9.154;2023-05-15T13:50:34;3.30;;;3.10;;
4837;SDS011;2433;48.768;9.154;2023-05-15T13:53:00;3.60;;;3.30;;
4837;SDS011;2433;48.768;9.154;2023-05-15T13:55:25;2.87;;;2.67;;
4837;SDS011;2433;48.768;9.154;2023-05-15T13:57:51;2.37;;;2.17;;
4837;SDS011;2433;48.768;9.154;2023-05-15T14:00:17;2.03;;;1.87;;
4837;SDS011;2433;48.768;9.154;2023-05-15T14:02:44;3.23;;;2.93;;
4837;SDS011;2433;48.768;9.154;2023-05-15T14:05:10;3.40;;;3.10;;
4837;SDS011;2433;48.768;9.154;2023-05-15T14:07:37;3.03;;;2.77;;
4837;SDS011;2433;48.768;9.154;2023-05-15T14:10:03;3.40;;;3.10;;
4837;SDS011;2433;48.768;9.154;2023-05-15T14:12:29;3.67;;;3.37;;
4837;SDS011;2433;48.768;9.154;2023-05-15T14:14:57;3.73;;;3.37;;
4837;SDS011;2433;48.768;9.154;2023-05-15T14:17:23;4.17;;;3.60;;
4837;SDS011;2433;48.768;9.154;2023-05-15T14:19:48;0.83;;;0.83;;
4837;SDS011;2433;48.768;9.154;2023-05-15T14:22:14;3.27;;;3.03;;
4837;SDS011;2433;48.768;9.154;2023-05-15T14:24:40;3.40;;;2.70;;
4837;SDS011;2433;48.768;9.154;2023-05-15T14:27:05;3.80;;;2.93;;
4837;SDS011;2433;48.768;9.154;2023-05-15T14:29:31;4.00;;;3.60;;
4837;SDS011;2433;48.768;9.154;2023-05-15T14:31:57;2.20;;;2.10;;
4837;SDS011;2433;48.768;9.154;2023-05-15T14:34:22;3.37;;;2.50;;
4837;SDS011;2433;48.768;9.154;2023-05-15T14:36:48;3.40;;;3.03;;
4837;SDS011;2433;48.768;9.154;2023-05-15T14:39:14;4.63;;;2.63;;
4837;SDS011;2433;48.768;9.154;2023-05-15T14:41:40;3.23;;;3.00;;
4837;SDS011;2433;48.768;9.154;2023-05-15T14:44:06;3.97;;;3.20;;
4837;SDS011;2433;48.768;9.154;2023-05-15T14:46:32;5.10;;;2.73;;
4837;SDS011;2433;48.768;9.154;2023-05-15T14:48:58;3.40;;;1.80;;
4837;SDS011;2433;48.768;9.154;2023-05-15T14:51:23;3.53;;;2.00;;
4837;SDS011;2433;48.768;9.154;2023-05-15T14:53:49;3.07;;;2.77;;
4837;SDS011;2433;48.768;9.154;2023-05-15T14:56:14;2.73;;;2.47;;
4837;SDS011;2433;48.768;9.154;2023-05-15T14:58:40;3.90;;;3.07;;
4837;SDS011;2433;48.768;9.154;2023-05-15T15:01:06;4.10;;;3.70;;
4837;SDS011;2433;48.768;9.154;2023-05-15T15:03:31;2.67;;;2.47;;
4837;SDS011;2433;48.768;9.154;2023-05-15T15:05:57;4.60;;;3.07;;
4837;SDS011;2433;48.768;9.154;2023-05-15T15:08:22;2.50;;;1.90;;
4837;SDS011;2433;48.768;9.154;2023-05-15T15:10:48;2.87;;;2.53;;
4837;SDS011;2433;48.768;9.154;2023-05-15T15:13:14;4.80;;;2.57;;
4837;SDS011;2433;48.768;9.154;2023-05-15T15:15:41;4.50;;;2.30;;
4837;SDS011;2433;48.768;9.154;2023-05-15T15:18:06;2.60;;;2.23;;
4837;SDS011;2433;48.768;9.154;2023-05-15T15:20:32;1.73;;;1.50;;
4837;SDS011;2433;48.768;9.154;2023-05-15T15:22:58;2.23;;;2.03;;
4837;SDS011;2433;48.768;9.154;2023-05-15T15:25:24;3.50;;;2.63;;
4837;SDS011;2433;48.768;9.154;2023-05-15T15:27:50;2.43;;;2.23;;
4837;SDS011;2433;48.768;9.154;2023-05-15T15:30:15;4.73;;;2.53;;
4837;SDS011;2433;48.768;9.154;2023-05-15T15:32:41;2.00;;;0.97;;
4837;SDS011;2433;48.768;9.154;2023-05-15T15:35:09;2.23;;;2.10;;
4837;SDS011;2433;48.768;9.154;2023-05-15T15:37:35;2.10;;;1.90;;
4837;SDS011;2433;48.768;9.154;2023-05-15T15:40:02;2.97;;;1.80;;
4837;SDS011;2433;48.768;9.154;2023-05-15T15:42:33;2.70;;;2.10;;
4837;SDS011;2433;48.768;9.154;2023-05-15T15:44:59;2.40;;;2.20;;
4837;SDS011;2433;48.768;9.154;2023-05-15T15:47:25;2.37;;;2.20;;
4837;SDS011;2433;48.768;9.154;2023-05-15T15:49:51;2.80;;;2.60;;